Time;durP1;ratioP1;P1;durP2;ratioP2;P2;SDS_P1;SDS_P2;PMS_P1;PMS_P2;Temp;Humidity;BMP_temperature;BMP_pressure;BME280_temperature;BME280_humidity;BME280_pressure;Samples;Min_cycle;Max_cycle;Signal;HPM_P1;HPM_P2
2021/10/24 00:00:08;;;;;;;6.97;3.90;;;7.20;99.90;;;;;;5053163;28;20223;-71
2021/10/24 00:02:36;;;;;;;7.80;4.63;;;7.10;99.90;;;;;;5053020;28;20204;-70
2021/10/24 00:05:03;;;;;;;5.03;3.75;;;7.00;99.90;;;;;;5053152;28;20295;-71
2021/10/24 00:07:30;;;;;;;6.18;4.28;;;6.90;99.90;;;;;;5052968;28;20246;-71
2021/10/24 00:09:57;;;;;;;6.40;4.22;;;6.90;99.90;;;;;;5053079;28;20230;-71
2021/10/24 00:12:24;;;;;;;7.97;5.13;;;7.00;99.90;;;;;;5052701;28;20213;-71
2021/10/24 00:14:52;;;;;;;5.78;4.32;;;7.00;99.90;;;;;;5052988;28;20232;-71
2021/10/24 00:17:19;;;;;;;9.10;5.57;;;7.00;99.90;;;;;;5053037;28;20214;-71
2021/10/24 00:19:46;;;;;;;7.32;5.18;;;7.00;99.90;;;;;;5052749;28;20709;-71
2021/10/24 00:22:13;;;;;;;6.10;4.43;;;7.00;99.90;;;;;;5052782;28;20211;-71
2021/10/24 00:24:39;;;;;;;6.40;4.65;;;6.90;99.90;;;;;;5052735;28;20214;-71
2021/10/24 00:27:06;;;;;;;9.32;4.93;;;6.90;99.90;;;;;;5052924;28;20289;-71
2021/10/24 00:29:33;;;;;;;5.30;4.05;;;6.90;99.90;;;;;;5052842;28;20318;-71
2021/10/24 00:32:02;;;;;;;7.10;5.97;;;6.80;99.90;;;;;;5052821;28;20204;-71
2021/10/24 00:34:29;;;;;;;5.25;4.25;;;6.80;99.90;;;;;;5052669;28;20310;-71
2021/10/24 00:36:55;;;;;;;5.88;5.10;;;6.80;99.90;;;;;;5052851;28;20294;-71
2021/10/24 00:39:22;;;;;;;7.22;4.78;;;6.70;99.90;;;;;;5056280;28;20650;-71
2021/10/24 00:41:49;;;;;;;9.52;5.40;;;6.80;99.90;;;;;;5056011;28;20299;-70
2021/10/24 00:44:21;;;;;;;6.07;4.13;;;6.70;99.90;;;;;;5056223;28;20199;-71
2021/10/24 00:46:48;;;;;;;7.15;4.72;;;6.70;99.90;;;;;;5056311;28;20231;-71
2021/10/24 00:49:17;;;;;;;10.85;5.88;;;6.70;99.90;;;;;;5056099;28;20230;-71
2021/10/24 00:51:44;;;;;;;5.50;4.40;;;6.70;99.90;;;;;;5056043;28;20203;-71
2021/10/24 00:54:13;;;;;;;6.90;5.50;;;6.70;99.90;;;;;;5056437;28;20203;-71
2021/10/24 00:56:41;;;;;;;7.63;5.10;;;6.80;99.90;;;;;;5056149;28;20226;-71
2021/10/24 00:59:08;;;;;;;9.70;6.10;;;6.80;99.90;;;;;;5055907;28;20658;-71
2021/10/24 01:01:35;;;;;;;11.15;4.55;;;6.80;99.90;;;;;;5055871;28;20211;-70
2021/10/24 01:04:04;;;;;;;4.20;3.78;;;6.80;99.90;;;;;;5055699;28;20670;-71
2021/10/24 01:06:32;;;;;;;7.53;4.68;;;6.80;99.90;;;;;;5055703;28;20689;-71
2021/10/24 01:08:59;;;;;;;5.05;3.92;;;6.80;99.90;;;;;;5055855;28;20230;-71
2021/10/24 01:11:27;;;;;;;7.43;4.65;;;6.70;99.90;;;;;;5055752;28;20298;-71
2021/10/24 01:13:54;;;;;;;5.40;4.10;;;6.70;99.90;;;;;;5055788;28;20256;-71
2021/10/24 01:16:21;;;;;;;7.97;4.25;;;6.70;99.90;;;;;;5055589;28;20314;-71
2021/10/24 01:18:48;;;;;;;5.70;4.82;;;6.60;99.90;;;;;;5055635;28;20202;-71
2021/10/24 01:21:17;;;;;;;8.95;4.93;;;6.60;99.90;;;;;;5055252;28;20203;-71
2021/10/24 01:23:45;;;;;;;7.70;4.97;;;6.60;99.90;;;;;;5055453;28;20215;-71
2021/10/24 01:26:13;;;;;;;5.28;4.18;;;6.60;99.90;;;;;;5055588;28;20203;-71
2021/10/24 01:28:40;;;;;;;7.97;5.55;;;6.50;99.90;;;;;;5055485;28;20295;-71
2021/10/24 01:31:06;;;;;;;7.43;4.75;;;6.50;99.90;;;;;;5054985;28;20219;-71
2021/10/24 01:33:33;;;;;;;6.40;4.65;;;6.40;99.90;;;;;;5055411;28;20298;-71
2021/10/24 01:36:04;;;;;;;7.25;5.05;;;6.30;99.90;;;;;;5055344;28;20223;-71
2021/10/24 01:38:33;;;;;;;7.22;4.38;;;6.20;99.90;;;;;;5055104;28;20299;-71
2021/10/24 01:41:00;;;;;;;7.57;5.13;;;6.20;99.90;;;;;;5055228;28;20318;-70
2021/10/24 01:43:29;;;;;;;6.63;3.90;;;6.20;99.90;;;;;;5055185;28;20729;-71
2021/10/24 01:45:56;;;;;;;4.00;3.60;;;6.10;99.90;;;;;;5055234;28;20227;-71
2021/10/24 01:48:23;;;;;;;6.80;4.57;;;6.10;99.90;;;;;;5055035;28;20212;-71
2021/10/24 01:50:52;;;;;;;4.22;3.75;;;6.20;99.90;;;;;;5055207;28;20229;-71
2021/10/24 01:53:21;;;;;;;5.50;4.25;;;6.20;99.90;;;;;;5054899;28;20204;-70
2021/10/24 01:55:49;;;;;;;4.95;3.38;;;6.20;99.90;;;;;;5054837;28;20310;-71
2021/10/24 01:58:17;;;;;;;8.45;4.00;;;6.20;99.90;;;;;;5054688;28;20298;-71
2021/10/24 02:00:44;;;;;;;5.15;3.47;;;6.10;99.90;;;;;;5054588;28;20310;-71
2021/10/24 02:03:11;;;;;;;5.03;3.78;;;6.10;99.90;;;;;;5054544;28;20299;-70
2021/10/24 02:05:39;;;;;;;7.32;3.72;;;5.90;99.90;;;;;;5054690;28;20298;-71
2021/10/24 02:08:07;;;;;;;6.50;4.50;;;6.00;99.90;;;;;;5054747;28;20564;-71
2021/10/24 02:10:34;;;;;;;3.65;3.20;;;6.00;99.90;;;;;;5054302;28;20262;-71
2021/10/24 02:13:03;;;;;;;6.38;4.18;;;6.00;99.90;;;;;;5054644;28;20203;-70
2021/10/24 02:15:30;;;;;;;4.60;3.40;;;6.00;99.90;;;;;;5054554;28;20234;-71
2021/10/24 02:17:57;;;;;;;4.60;3.63;;;6.00;99.90;;;;;;5054601;28;20207;-72
2021/10/24 02:20:25;;;;;;;6.88;3.45;;;6.00;99.90;;;;;;5054269;28;20563;-71
2021/10/24 02:22:52;;;;;;;4.95;3.53;;;6.10;99.90;;;;;;5054322;28;20213;-71
2021/10/24 02:25:19;;;;;;;5.75;3.55;;;6.10;99.90;;;;;;5054150;28;20298;-71
2021/10/24 02:27:46;;;;;;;5.38;3.30;;;5.90;99.90;;;;;;5054214;28;20299;-71
2021/10/24 02:30:15;;;;;;;4.38;3.35;;;5.90;99.90;;;;;;5054289;28;20234;-70
2021/10/24 02:32:43;;;;;;;4.07;2.85;;;5.90;99.90;;;;;;5054161;28;20294;-71
2021/10/24 02:35:10;;;;;;;6.65;3.75;;;5.70;99.90;;;;;;5054194;28;20581;-71
2021/10/24 02:37:38;;;;;;;4.50;2.80;;;5.60;99.90;;;;;;5054141;28;20298;-71
2021/10/24 02:40:06;;;;;;;10.77;3.92;;;5.50;99.90;;;;;;5054147;28;20336;-71
2021/10/24 02:42:33;;;;;;;8.25;4.90;;;5.60;99.90;;;;;;5053938;28;20551;-70
2021/10/24 02:45:01;;;;;;;4.47;3.28;;;5.70;99.90;;;;;;5054074;28;20196;-71
2021/10/24 02:47:29;;;;;;;6.80;3.63;;;5.70;99.90;;;;;;5053911;28;20215;-71
2021/10/24 02:49:56;;;;;;;5.97;3.78;;;5.80;99.90;;;;;;5054052;28;20250;-71
2021/10/24 02:52:23;;;;;;;5.43;3.30;;;5.80;99.90;;;;;;5053761;28;20206;-70
2021/10/24 02:54:49;;;;;;;3.60;3.00;;;5.80;99.90;;;;;;5053616;28;20680;-71
2021/10/24 02:57:16;;;;;;;3.78;3.17;;;5.80;99.90;;;;;;5053877;28;20209;-71
2021/10/24 02:59:43;;;;;;;3.65;3.20;;;5.90;99.90;;;;;;5053525;28;20231;-71
2021/10/24 03:02:10;;;;;;;4.57;3.83;;;5.90;99.90;;;;;;5053457;28;20242;-70
2021/10/24 03:04:38;;;;;;;3.97;2.92;;;6.00;99.90;;;;;;5053694;28;20295;-71
2021/10/24 03:07:05;;;;;;;6.05;3.22;;;6.00;99.90;;;;;;5053695;28;20210;-71
2021/10/24 03:09:32;;;;;;;4.95;3.47;;;6.00;99.90;;;;;;5053595;28;20319;-71
2021/10/24 03:11:58;;;;;;;8.25;3.20;;;6.00;99.90;;;;;;5053591;28;20606;-70
2021/10/24 03:14:25;;;;;;;4.10;3.50;;;6.00;99.90;;;;;;5053568;28;20205;-71
2021/10/24 03:16:52;;;;;;;4.68;3.45;;;5.90;99.90;;;;;;5053538;28;20343;-71
2021/10/24 03:19:20;;;;;;;5.57;3.67;;;5.90;99.90;;;;;;5053405;28;20321;-71
2021/10/24 03:21:48;;;;;;;5.50;3.15;;;5.80;99.90;;;;;;5053256;28;20239;-70
2021/10/24 03:24:17;;;;;;;6.20;3.20;;;5.80;99.90;;;;;;5053301;28;20402;-71
2021/10/24 03:26:44;;;;;;;4.60;2.88;;;5.80;99.90;;;;;;5053501;28;20209;-71
2021/10/24 03:29:11;;;;;;;4.45;3.10;;;5.80;99.90;;;;;;5053427;28;20227;-71
2021/10/24 03:31:38;;;;;;;4.03;3.03;;;5.80;99.90;;;;;;5053334;28;20573;-71
2021/10/24 03:34:05;;;;;;;6.70;3.53;;;5.80;99.90;;;;;;5053437;28;20205;-71
2021/10/24 03:36:32;;;;;;;5.55;3.78;;;5.80;99.90;;;;;;5053346;28;20223;-71
2021/10/24 03:39:00;;;;;;;6.15;3.30;;;5.80;99.90;;;;;;5053337;28;20237;-71
2021/10/24 03:41:27;;;;;;;7.47;3.85;;;5.70;99.90;;;;;;5053252;28;20572;-70
2021/10/24 03:43:53;;;;;;;6.57;3.88;;;5.70;99.90;;;;;;5053301;28;20298;-71
2021/10/24 03:46:20;;;;;;;4.45;3.83;;;5.70;99.90;;;;;;5053250;28;20569;-71
2021/10/24 03:48:47;;;;;;;6.60;4.03;;;5.70;99.90;;;;;;5053307;28;20234;-71
2021/10/24 03:51:14;;;;;;;4.90;3.97;;;5.70;99.90;;;;;;5053175;28;20578;-70
2021/10/24 03:53:41;;;;;;;7.35;4.10;;;5.70;99.90;;;;;;5053115;28;20294;-71
2021/10/24 03:56:09;;;;;;;4.50;3.22;;;5.60;99.90;;;;;;5053339;28;20226;-71
2021/10/24 03:58:36;;;;;;;4.97;3.60;;;5.60;99.90;;;;;;5053171;28;20679;-71
2021/10/24 04:01:03;;;;;;;5.43;3.13;;;5.70;99.90;;;;;;5052921;28;20315;-70
2021/10/24 04:03:31;;;;;;;4.90;4.00;;;5.60;99.90;;;;;;5053221;28;20206;-71
2021/10/24 04:05:58;;;;;;;5.43;3.42;;;5.50;99.90;;;;;;5053150;28;20620;-71
2021/10/24 04:08:25;;;;;;;5.68;3.35;;;5.50;99.90;;;;;;5053127;28;20226;-71
2021/10/24 04:10:51;;;;;;;4.38;3.35;;;5.40;99.90;;;;;;5053107;28;20219;-71
2021/10/24 04:13:20;;;;;;;4.32;3.83;;;5.40;99.90;;;;;;5054954;28;20203;-70
2021/10/24 04:15:47;;;;;;;4.82;3.40;;;5.30;99.90;;;;;;5056836;28;20233;-71
2021/10/24 04:18:13;;;;;;;4.57;3.65;;;5.30;99.90;;;;;;5056895;28;20576;-71
2021/10/24 04:20:40;;;;;;;4.57;3.42;;;5.30;99.90;;;;;;5056804;28;20313;-71
2021/10/24 04:23:07;;;;;;;6.55;3.67;;;5.40;99.90;;;;;;5056499;28;20298;-71
2021/10/24 04:25:35;;;;;;;5.05;3.95;;;5.20;99.90;;;;;;5056568;28;20254;-71
2021/10/24 04:28:01;;;;;;;8.73;4.03;;;5.20;99.90;;;;;;5056598;28;20199;-71
2021/10/24 04:30:30;;;;;;;6.63;3.97;;;5.20;99.90;;;;;;5057254;28;20227;-71
2021/10/24 04:32:57;;;;;;;5.50;3.95;;;5.30;99.90;;;;;;5056400;28;20250;-70
2021/10/24 04:35:23;;;;;;;7.30;4.68;;;5.20;99.90;;;;;;5056440;28;20293;-71
2021/10/24 04:37:50;;;;;;;7.65;4.20;;;5.10;99.90;;;;;;5056362;28;20210;-71
2021/10/24 04:40:17;;;;;;;5.78;3.97;;;5.10;99.90;;;;;;5056384;28;20223;-71
2021/10/24 04:42:44;;;;;;;7.72;4.10;;;5.10;99.90;;;;;;5056374;28;20207;-71
2021/10/24 04:45:11;;;;;;;5.93;4.53;;;5.20;99.90;;;;;;5056363;28;20207;-71
2021/10/24 04:47:39;;;;;;;16.83;4.72;;;5.30;99.90;;;;;;5056327;28;20210;-71
2021/10/24 04:50:08;;;;;;;8.15;5.00;;;5.30;99.90;;;;;;5056051;28;20310;-71
2021/10/24 04:52:37;;;;;;;7.20;4.63;;;5.40;99.90;;;;;;5056108;28;20208;-70
2021/10/24 04:55:04;;;;;;;8.23;5.40;;;5.30;99.90;;;;;;5056125;28;20218;-71
2021/10/24 04:57:31;;;;;;;7.93;5.15;;;5.20;99.90;;;;;;5056082;28;20578;-71
2021/10/24 04:59:58;;;;;;;8.52;5.10;;;5.20;99.90;;;;;;5055757;28;20314;-71
2021/10/24 05:02:25;;;;;;;8.65;5.63;;;5.10;99.90;;;;;;5055895;28;20242;-70
2021/10/24 05:04:53;;;;;;;6.88;4.00;;;5.00;99.90;;;;;;5056003;28;20640;-71
2021/10/24 05:07:20;;;;;;;6.68;4.85;;;5.10;99.90;;;;;;5055889;28;20662;-71
2021/10/24 05:09:47;;;;;;;7.85;4.53;;;5.10;99.90;;;;;;5055860;28;20235;-71
2021/10/24 05:12:14;;;;;;;8.52;5.18;;;5.00;99.90;;;;;;5055712;28;20207;-70
2021/10/24 05:14:41;;;;;;;9.20;5.43;;;4.90;99.90;;;;;;5055857;28;20231;-70
2021/10/24 05:17:07;;;;;;;5.40;4.07;;;5.00;99.90;;;;;;5055684;28;20277;-70
2021/10/24 05:19:34;;;;;;;7.78;5.35;;;5.10;99.90;;;;;;5055486;28;20310;-70
2021/10/24 05:22:03;;;;;;;8.75;4.78;;;5.00;99.90;;;;;;5055636;28;20210;-70
2021/10/24 05:24:30;;;;;;;8.60;4.45;;;5.00;99.90;;;;;;5054958;28;20306;-70
2021/10/24 05:26:56;;;;;;;5.75;4.20;;;5.10;99.90;;;;;;5055594;28;20569;-70
2021/10/24 05:29:23;;;;;;;4.90;3.40;;;5.10;99.90;;;;;;5055494;28;20233;-70
2021/10/24 05:31:50;;;;;;;6.45;4.88;;;4.90;99.90;;;;;;5055414;28;20630;-70
2021/10/24 05:34:17;;;;;;;7.18;4.13;;;4.90;99.90;;;;;;5055460;28;20210;-71
2021/10/24 05:36:44;;;;;;;5.82;4.05;;;5.00;99.90;;;;;;5055086;28;20578;-71
2021/10/24 05:39:12;;;;;;;7.22;4.00;;;5.10;99.90;;;;;;5055284;28;20225;-71
2021/10/24 05:41:39;;;;;;;5.65;3.30;;;5.10;99.90;;;;;;5055260;28;20294;-70
2021/10/24 05:44:06;;;;;;;5.75;4.00;;;5.10;99.90;;;;;;5055268;28;20231;-71
2021/10/24 05:46:33;;;;;;;4.88;3.90;;;5.10;99.90;;;;;;5054935;28;20195;-70
2021/10/24 05:49:01;;;;;;;7.10;4.30;;;5.20;99.90;;;;;;5055118;28;20204;-70
2021/10/24 05:51:28;;;;;;;6.10;4.43;;;5.20;99.90;;;;;;5054980;28;20207;-70
2021/10/24 05:53:55;;;;;;;6.55;3.63;;;5.20;99.90;;;;;;5054876;28;20199;-70
2021/10/24 05:56:23;;;;;;;9.50;4.40;;;5.30;99.90;;;;;;5054998;28;20258;-70
2021/10/24 05:58:50;;;;;;;5.55;3.70;;;5.20;99.90;;;;;;5054793;28;20214;-70
2021/10/24 06:01:17;;;;;;;5.13;3.97;;;5.30;99.90;;;;;;5054821;28;20626;-70
2021/10/24 06:03:44;;;;;;;5.60;3.78;;;5.20;99.90;;;;;;5054816;28;20661;-70
2021/10/24 06:06:11;;;;;;;5.05;3.30;;;5.30;99.90;;;;;;5054587;28;20743;-70
2021/10/24 06:08:38;;;;;;;7.47;4.30;;;5.30;99.90;;;;;;5054801;28;20293;-70
2021/10/24 06:11:17;;;;;;;9.13;4.38;;;5.20;99.90;;;;;;5054553;28;20226;-71
2021/10/24 06:13:46;;;;;;;6.35;4.20;;;5.10;99.90;;;;;;5054702;28;20298;-70
2021/10/24 06:16:14;;;;;;;5.97;3.50;;;5.00;99.90;;;;;;5054418;28;20321;-70
2021/10/24 06:18:41;;;;;;;6.00;4.50;;;5.00;99.90;;;;;;5054301;28;20685;-70
2021/10/24 06:21:08;;;;;;;4.85;4.32;;;5.10;99.90;;;;;;5054367;28;20226;-70
2021/10/24 06:23:35;;;;;;;5.38;3.83;;;5.10;99.90;;;;;;5054323;28;20294;-70
2021/10/24 06:26:02;;;;;;;7.70;4.25;;;5.00;99.90;;;;;;5054498;28;20286;-70
2021/10/24 06:28:29;;;;;;;7.18;4.00;;;5.00;99.90;;;;;;5054345;28;20294;-70
2021/10/24 06:30:57;;;;;;;6.07;4.35;;;4.80;99.90;;;;;;5054023;28;20229;-70
2021/10/24 06:33:24;;;;;;;5.65;4.00;;;4.70;99.90;;;;;;5054401;28;20218;-70
2021/10/24 06:35:51;;;;;;;7.43;4.97;;;4.70;99.90;;;;;;5053252;28;20717;-70
2021/10/24 06:38:19;;;;;;;6.20;3.75;;;4.80;99.90;;;;;;5054256;28;20280;-70
2021/10/24 06:40:47;;;;;;;5.10;4.25;;;4.70;99.90;;;;;;5054170;28;20623;-70
2021/10/24 06:43:14;;;;;;;7.55;4.30;;;4.80;99.90;;;;;;5053860;28;20209;-70
2021/10/24 06:45:41;;;;;;;13.32;4.15;;;4.80;99.90;;;;;;5054093;28;20204;-70
2021/10/24 06:48:12;;;;;;;8.20;5.13;;;4.70;99.90;;;;;;5054059;28;20631;-70
2021/10/24 06:50:39;;;;;;;10.35;5.18;;;4.80;99.90;;;;;;5054081;28;20659;-70
2021/10/24 06:53:05;;;;;;;6.00;4.32;;;4.70;99.90;;;;;;5053724;28;20203;-70
2021/10/24 06:55:32;;;;;;;5.30;4.20;;;4.60;99.90;;;;;;5053926;28;20298;-70
2021/10/24 06:57:59;;;;;;;7.15;4.55;;;4.70;99.90;;;;;;5053777;28;20648;-70
2021/10/24 07:00:28;;;;;;;5.60;4.65;;;4.70;99.90;;;;;;5053899;28;20314;-70
2021/10/24 07:02:55;;;;;;;7.35;4.25;;;4.70;99.90;;;;;;5053482;28;20211;-70
2021/10/24 07:05:24;;;;;;;5.43;3.97;;;4.70;99.90;;;;;;5053806;28;20203;-70
2021/10/24 07:07:51;;;;;;;7.90;4.95;;;4.70;99.90;;;;;;5053818;28;20202;-70
2021/10/24 07:10:19;;;;;;;5.75;4.63;;;4.80;99.90;;;;;;5053672;28;20310;-70
2021/10/24 07:12:51;;;;;;;7.68;5.13;;;4.80;99.90;;;;;;5053530;28;20200;-70
2021/10/24 07:15:18;;;;;;;9.85;6.25;;;4.90;99.90;;;;;;5053655;28;20207;-70
2021/10/24 07:17:45;;;;;;;5.93;5.32;;;4.90;99.90;;;;;;5053370;28;20715;-70
2021/10/24 07:20:14;;;;;;;7.60;5.93;;;4.80;99.90;;;;;;5053267;28;20219;-70
2021/10/24 07:22:42;;;;;;;8.60;5.28;;;4.90;99.90;;;;;;5053490;28;20211;-70
2021/10/24 07:25:10;;;;;;;10.38;6.25;;;5.00;99.90;;;;;;5053233;28;20215;-70
2021/10/24 07:27:37;;;;;;;10.20;5.72;;;5.10;99.90;;;;;;5053484;28;20200;-70
2021/10/24 07:30:06;;;;;;;7.63;5.80;;;5.00;99.90;;;;;;5053441;28;20285;-70
2021/10/24 07:32:33;;;;;;;7.75;5.60;;;5.00;99.90;;;;;;5053191;28;20213;-70
2021/10/24 07:35:00;;;;;;;13.73;7.55;;;5.10;99.90;;;;;;5053425;28;20299;-70
2021/10/24 07:37:27;;;;;;;8.77;6.20;;;5.30;99.90;;;;;;5053307;28;20309;-71
2021/10/24 07:39:55;;;;;;;9.93;6.30;;;5.30;99.90;;;;;;5053261;28;20306;-71
2021/10/24 07:42:22;;;;;;;8.05;5.68;;;5.40;99.90;;;;;;5053217;28;20310;-70
2021/10/24 07:44:49;;;;;;;7.28;5.80;;;5.50;99.90;;;;;;5053618;28;20200;-70
2021/10/24 07:47:16;;;;;;;8.07;5.85;;;5.60;99.90;;;;;;5055396;28;20649;-70
2021/10/24 07:49:43;;;;;;;9.98;5.35;;;5.60;99.90;;;;;;5057287;28;20594;-70
2021/10/24 07:52:10;;;;;;;10.10;6.18;;;5.70;99.90;;;;;;5056937;28;20209;-70
2021/10/24 07:54:37;;;;;;;9.40;6.28;;;5.80;99.90;;;;;;5057333;28;20203;-70
2021/10/24 07:57:06;;;;;;;8.00;6.03;;;5.80;99.90;;;;;;5057230;28;20258;-71
2021/10/24 07:59:33;;;;;;;8.60;6.25;;;5.90;99.90;;;;;;5057074;28;20306;-71
2021/10/24 08:02:01;;;;;;;13.93;5.97;;;5.90;99.90;;;;;;5057124;28;20199;-70
2021/10/24 08:04:27;;;;;;;11.85;6.60;;;5.90;99.90;;;;;;5057119;28;20207;-71
2021/10/24 08:06:54;;;;;;;8.23;6.65;;;5.80;99.90;;;;;;5057123;28;20254;-71
2021/10/24 08:09:21;;;;;;;9.98;6.82;;;5.80;99.90;;;;;;5056962;28;20228;-71
2021/10/24 08:11:48;;;;;;;16.25;6.90;;;5.80;99.90;;;;;;5056902;28;20295;-70
2021/10/24 08:14:17;;;;;;;13.18;7.25;;;5.80;99.90;;;;;;5056941;28;20226;-71
2021/10/24 08:16:44;;;;;;;11.85;7.13;;;5.70;99.90;;;;;;5056778;28;20220;-70
2021/10/24 08:19:11;;;;;;;10.40;7.07;;;5.60;99.90;;;;;;5056744;28;22520;-71
2021/10/24 08:21:38;;;;;;;10.63;6.95;;;5.60;99.90;;;;;;5056625;28;20206;-70
2021/10/24 08:24:05;;;;;;;10.23;6.95;;;5.70;99.90;;;;;;5056578;28;20225;-71
2021/10/24 08:26:32;;;;;;;10.90;6.65;;;5.70;99.90;;;;;;5056742;28;20290;-71
2021/10/24 08:28:59;;;;;;;12.60;8.05;;;5.60;99.90;;;;;;5056651;28;20203;-71
2021/10/24 08:31:29;;;;;;;11.10;7.72;;;5.50;99.90;;;;;;5056247;28;20204;-70
2021/10/24 08:33:57;;;;;;;10.23;7.10;;;5.40;99.90;;;;;;5056485;28;20207;-71
2021/10/24 08:36:25;;;;;;;11.93;8.25;;;5.40;99.90;;;;;;5056233;28;20658;-71
2021/10/24 08:38:53;;;;;;;10.05;6.80;;;5.50;99.90;;;;;;5056437;28;20208;-71
2021/10/24 08:41:23;;;;;;;9.85;7.63;;;5.60;99.90;;;;;;5056364;28;20298;-71
2021/10/24 08:43:50;;;;;;;9.30;6.78;;;5.60;99.90;;;;;;5056693;28;20218;-71
2021/10/24 08:46:19;;;;;;;10.68;8.13;;;5.70;99.90;;;;;;5056301;28;20210;-71
2021/10/24 08:48:48;;;;;;;14.02;7.72;;;5.80;99.90;;;;;;5056380;28;20225;-71
2021/10/24 08:51:16;;;;;;;11.77;7.38;;;6.00;99.90;;;;;;5056119;28;20234;-70
2021/10/24 08:53:44;;;;;;;11.00;7.72;;;6.20;99.90;;;;;;5056243;28;20204;-71
2021/10/24 08:56:16;;;;;;;13.35;7.75;;;6.30;99.90;;;;;;5056215;28;20207;-71
2021/10/24 08:58:44;;;;;;;11.07;7.50;;;6.30;99.90;;;;;;5055238;28;20554;-71
2021/10/24 09:01:11;;;;;;;12.90;7.50;;;6.40;99.90;;;;;;5055929;28;20223;-71
2021/10/24 09:03:38;;;;;;;14.35;7.55;;;6.40;99.90;;;;;;5055862;28;20200;-71
2021/10/24 09:06:07;;;;;;;9.70;7.30;;;6.50;99.90;;;;;;5056062;28;20572;-71
2021/10/24 09:08:37;;;;;;;12.48;7.13;;;6.70;99.90;;;;;;5055815;28;20200;-71
2021/10/24 09:11:04;;;;;;;12.05;7.63;;;6.90;99.90;;;;;;5055790;28;20314;-71
2021/10/24 09:13:33;;;;;;;11.35;6.80;;;7.00;99.90;;;;;;5055861;28;20214;-71
2021/10/24 09:16:02;;;;;;;10.27;5.93;;;7.00;99.90;;;;;;5055603;28;20719;-71
2021/10/24 09:18:36;;;;;;;8.90;6.63;;;7.00;99.90;;;;;;5055706;28;20238;-71
2021/10/24 09:21:24;;;;;;;8.55;6.25;;;7.10;99.90;;;;;;5055554;28;20314;-70
2021/10/24 09:23:53;;;;;;;7.53;5.90;;;7.20;99.90;;;;;;5055547;28;20211;-71
2021/10/24 09:26:22;;;;;;;9.23;6.22;;;7.30;99.90;;;;;;5056226;28;20291;-71
2021/10/24 09:29:01;;;;;;;8.75;6.55;;;7.40;99.90;;;;;;5055616;28;20214;-71
2021/10/24 09:31:29;;;;;;;7.18;5.30;;;7.40;99.90;;;;;;5055188;28;20191;-71
2021/10/24 09:33:57;;;;;;;9.30;5.47;;;7.50;99.90;;;;;;5055482;28;20210;-71
2021/10/24 09:36:26;;;;;;;8.88;5.93;;;7.50;99.90;;;;;;5055336;28;20214;-71
2021/10/24 09:39:07;;;;;;;9.35;6.25;;;7.60;99.90;;;;;;5055281;28;20314;-71
2021/10/24 09:41:33;;;;;;;9.02;5.65;;;7.60;99.90;;;;;;5055008;28;20282;-71
2021/10/24 09:44:11;;;;;;;10.43;5.55;;;7.60;99.90;;;;;;5055291;28;20203;-71
2021/10/24 09:46:51;;;;;;;8.48;6.38;;;7.70;99.90;;;;;;5055219;28;20211;-71
2021/10/24 09:49:19;;;;;;;8.38;4.82;;;7.70;99.90;;;;;;5055134;28;20266;-71
2021/10/24 09:51:47;;;;;;;8.13;5.55;;;7.80;99.90;;;;;;5055056;28;20294;-70
2021/10/24 09:54:19;;;;;;;8.18;4.90;;;7.90;99.90;;;;;;5055125;28;20386;-71
2021/10/24 09:56:47;;;;;;;8.93;5.40;;;8.00;99.90;;;;;;5055045;28;20614;-71
2021/10/24 09:59:16;;;;;;;8.25;6.20;;;8.10;99.90;;;;;;5054912;28;20310;-71
2021/10/24 10:01:44;;;;;;;7.45;5.90;;;8.10;99.90;;;;;;5054776;28;20296;-71
2021/10/24 10:04:12;;;;;;;8.00;5.70;;;8.20;99.90;;;;;;5054741;28;20678;-71
2021/10/24 10:06:39;;;;;;;8.32;5.70;;;8.30;99.90;;;;;;5054888;28;20214;-71
2021/10/24 10:09:08;;;;;;;8.15;5.70;;;8.30;99.90;;;;;;5054595;28;20199;-71
2021/10/24 10:11:39;;;;;;;7.18;5.70;;;8.40;99.90;;;;;;5054366;28;20670;-71
2021/10/24 10:14:09;;;;;;;6.65;4.80;;;8.60;99.90;;;;;;5054790;28;20207;-72
2021/10/24 10:16:39;;;;;;;7.78;5.78;;;8.70;99.90;;;;;;5054518;28;20207;-71
2021/10/24 10:19:08;;;;;;;5.88;4.90;;;8.90;99.90;;;;;;5054310;28;20227;-71
2021/10/24 10:21:37;;;;;;;8.23;5.20;;;9.00;99.90;;;;;;5054484;28;20294;-71
2021/10/24 10:24:06;;;;;;;5.18;4.00;;;9.20;99.90;;;;;;5054305;28;20637;-72
2021/10/24 10:26:37;;;;;;;6.20;4.20;;;9.30;99.90;;;;;;5054498;28;20211;-71
2021/10/24 10:29:05;;;;;;;5.72;3.80;;;9.40;99.90;;;;;;5054421;28;20200;-71
2021/10/24 10:31:33;;;;;;;4.65;3.65;;;9.50;99.90;;;;;;5054295;28;20208;-70
2021/10/24 10:34:02;;;;;;;5.03;3.67;;;9.60;99.90;;;;;;5054680;28;20207;-71
2021/10/24 10:36:59;;;;;;;4.55;3.30;;;9.70;99.90;;;;;;5054024;28;20290;-71
2021/10/24 10:39:40;;;;;;;4.00;3.30;;;9.80;99.90;;;;;;5054519;28;20238;-71
2021/10/24 10:42:43;;;;;;;5.43;4.30;;;9.90;99.90;;;;;;5054163;28;20278;-70
2021/10/24 10:45:24;;;;;;;4.43;3.55;;;10.00;99.90;;;;;;5054220;28;20213;-71
2021/10/24 10:47:52;;;;;;;5.43;3.70;;;10.10;99.90;;;;;;5053945;28;20199;-71
2021/10/24 10:50:43;;;;;;;5.72;3.90;;;10.30;99.90;;;;;;5054098;28;20417;-71
2021/10/24 10:53:11;;;;;;;4.80;3.75;;;10.40;99.90;;;;;;5053926;28;20252;-71
2021/10/24 10:56:19;;;;;;;3.83;2.92;;;10.60;99.90;;;;;;5053951;28;20732;-71
2021/10/24 10:58:47;;;;;;;5.22;3.50;;;10.90;99.90;;;;;;5053931;28;20223;-71
2021/10/24 11:01:22;;;;;;;4.22;3.33;;;11.20;99.90;;;;;;5053382;28;20721;-70
2021/10/24 11:03:51;;;;;;;4.60;3.40;;;11.30;99.90;;;;;;5053833;28;20243;-71
2021/10/24 11:06:48;;;;;;;3.38;2.80;;;11.40;99.90;;;;;;5053574;28;20247;-71
2021/10/24 11:09:38;;;;;;;2.92;2.53;;;11.40;99.90;;;;;;5053597;28;20226;-71
2021/10/24 11:12:07;;;;;;;5.68;3.30;;;11.40;99.90;;;;;;5053327;28;20197;-70
2021/10/24 11:14:43;;;;;;;3.20;2.88;;;11.40;99.90;;;;;;5053724;28;20260;-71
2021/10/24 11:17:35;;;;;;;3.78;3.00;;;11.30;99.90;;;;;;5053652;28;20289;-71
2021/10/24 11:20:44;;;;;;;2.92;2.60;;;11.40;99.90;;;;;;5053613;28;20219;-71
2021/10/24 11:23:15;;;;;;;4.60;2.80;;;11.40;99.90;;;;;;5050648;28;20209;-71
2021/10/24 11:25:42;;;;;;;5.35;2.88;;;11.40;99.90;;;;;;5053311;28;20211;-71
2021/10/24 11:28:22;;;;;;;3.95;2.80;;;11.50;99.90;;;;;;5053388;28;20200;-71
2021/10/24 11:31:01;;;;;;;4.55;2.63;;;11.50;99.90;;;;;;5053239;28;20223;-71
2021/10/24 11:33:43;;;;;;;3.35;2.90;;;11.50;99.90;;;;;;5053292;28;20661;-71
2021/10/24 11:36:10;;;;;;;3.08;2.80;;;11.60;99.90;;;;;;5053307;28;20210;-71
2021/10/24 11:38:37;;;;;;;3.28;2.60;;;11.70;99.90;;;;;;5053348;28;20231;-71
2021/10/24 11:41:05;;;;;;;3.40;3.10;;;11.80;99.90;;;;;;5052896;28;20227;-71
2021/10/24 11:43:34;;;;;;;4.72;2.53;;;11.80;99.90;;;;;;5053320;28;20681;-71
2021/10/24 11:46:07;;;;;;;2.97;2.65;;;11.90;99.90;;;;;;5053388;28;20203;-71
2021/10/24 11:48:36;;;;;;;3.25;2.80;;;12.00;99.90;;;;;;5053373;28;20203;-71
2021/10/24 11:51:05;;;;;;;2.92;2.53;;;12.00;99.90;;;;;;5053136;28;20230;-71
2021/10/24 11:53:33;;;;;;;3.03;2.65;;;12.20;99.90;;;;;;5053258;28;20662;-71
2021/10/24 11:56:04;;;;;;;3.63;3.33;;;12.50;99.70;;;;;;5053216;28;20208;-71
2021/10/24 12:01:17;;;;;;;3.08;2.78;;;13.00;98.30;;;;;;5053165;28;20704;-71
2021/10/24 12:03:54;;;;;;;3.75;3.33;;;13.20;98.80;;;;;;5053230;28;20208;-71
2021/10/24 12:06:48;;;;;;;3.88;3.10;;;13.10;98.50;;;;;;5053124;28;20209;-71
2021/10/24 12:09:15;;;;;;;4.75;2.88;;;12.90;99.80;;;;;;5052903;28;20224;-71
2021/10/24 12:11:43;;;;;;;3.55;3.10;;;12.90;99.30;;;;;;5053014;28;20226;-71
2021/10/24 12:14:11;;;;;;;3.05;2.75;;;13.00;99.90;;;;;;5053067;28;20210;-71
2021/10/24 12:16:41;;;;;;;2.90;2.65;;;13.00;99.00;;;;;;5052991;28;20253;-71
2021/10/24 12:19:28;;;;;;;3.95;3.22;;;13.10;98.70;;;;;;5052922;28;20632;-71
2021/10/24 12:21:57;;;;;;;3.53;2.85;;;13.30;99.40;;;;;;5052675;28;20190;-71
2021/10/24 12:24:26;;;;;;;4.13;3.33;;;13.40;98.40;;;;;;5052677;28;20212;-72
2021/10/24 12:27:07;;;;;;;3.53;3.22;;;13.90;98.40;;;;;;5053056;28;20203;-71
2021/10/24 12:29:35;;;;;;;3.38;3.08;;;14.70;97.20;;;;;;5052637;28;20223;-72
2021/10/24 12:32:10;;;;;;;3.50;2.72;;;15.50;95.00;;;;;;5052598;28;20246;-72
2021/10/24 12:34:39;;;;;;;3.50;3.20;;;16.10;93.90;;;;;;5055473;28;20542;-72
2021/10/24 12:37:18;;;;;;;3.42;3.03;;;16.60;92.50;;;;;;5056592;28;20202;-72
2021/10/24 12:39:45;;;;;;;4.35;3.10;;;16.50;91.00;;;;;;5056543;28;20329;-72
2021/10/24 12:42:19;;;;;;;3.20;2.80;;;16.40;90.80;;;;;;5056371;28;20206;-71
2021/10/24 12:44:46;;;;;;;3.42;2.80;;;16.30;90.10;;;;;;5056498;28;20253;-71
2021/10/24 12:47:16;;;;;;;4.30;3.20;;;15.90;91.50;;;;;;5056236;28;20203;-72
2021/10/24 12:49:55;;;;;;;5.28;3.35;;;15.70;90.80;;;;;;5056302;28;20238;-71
2021/10/24 12:52:22;;;;;;;3.90;3.55;;;15.20;91.50;;;;;;5056174;28;20197;-71
2021/10/24 12:54:59;;;;;;;4.18;3.00;;;15.00;91.90;;;;;;5056051;28;20299;-71
2021/10/24 12:57:25;;;;;;;7.45;6.25;;;14.80;92.80;;;;;;5056303;28;20291;-71
2021/10/24 12:59:52;;;;;;;5.25;4.10;;;14.60;91.80;;;;;;5056028;28;20256;-71
2021/10/24 13:02:19;;;;;;;6.47;4.55;;;14.50;93.70;;;;;;5056024;28;20258;-71
2021/10/24 13:04:46;;;;;;;4.45;3.38;;;14.50;93.70;;;;;;5056005;28;20741;-71